Time;durP1;ratioP1;P1;durP2;ratioP2;P2;SDS_P1;SDS_P2;PMS_P1;PMS_P2;Temp;Humidity;BMP_temperature;BMP_pressure;BME280_temperature;BME280_humidity;BME280_pressure;Samples;Min_cycle;Max_cycle;Signal;HPM_P1;HPM_P2
2022/07/22 00:00:13;;;;;;;11.32;5.93;;;18.50;99.90;;;;;;5032087;28;20029;-69
2022/07/22 00:02:39;;;;;;;10.30;6.07;;;18.50;99.90;;;;;;5033570;28;20033;-70
2022/07/22 00:05:06;;;;;;;12.10;6.30;;;18.50;99.90;;;;;;5033382;28;20569;-69
2022/07/22 00:07:32;;;;;;;16.63;5.80;;;18.50;99.90;;;;;;5033226;28;20033;-70
2022/07/22 00:10:00;;;;;;;15.93;6.15;;;18.50;99.90;;;;;;5033121;28;20053;-70
2022/07/22 00:12:26;;;;;;;13.85;6.28;;;18.50;99.90;;;;;;5055129;22;20484;-71
2022/07/22 00:14:52;;;;;;;12.70;6.13;;;18.50;99.90;;;;;;5068510;28;20492;-71
2022/07/22 00:17:18;;;;;;;11.70;5.78;;;18.50;99.90;;;;;;5052760;28;20040;-71
2022/07/22 00:19:44;;;;;;;10.45;6.35;;;18.50;99.90;;;;;;5052807;28;20071;-71
2022/07/22 00:22:10;;;;;;;16.33;6.25;;;18.40;99.90;;;;;;5052857;28;20033;-70
2022/07/22 00:24:35;;;;;;;15.13;6.53;;;18.40;99.90;;;;;;5052887;28;20040;-71
2022/07/22 00:27:01;;;;;;;11.45;6.35;;;18.40;99.90;;;;;;5052829;28;20029;-71
2022/07/22 00:29:27;;;;;;;12.95;5.35;;;18.40;99.90;;;;;;5051177;28;20025;-70
2022/07/22 00:31:53;;;;;;;11.30;6.03;;;18.40;99.90;;;;;;5052690;28;20036;-71
2022/07/22 00:34:19;;;;;;;17.48;5.60;;;18.40;99.90;;;;;;5052869;28;20481;-70
2022/07/22 00:36:45;;;;;;;10.23;4.90;;;18.50;99.90;;;;;;5051158;28;20490;-71
2022/07/22 00:39:11;;;;;;;9.88;5.32;;;18.40;99.90;;;;;;5052360;28;20025;-71
2022/07/22 00:41:37;;;;;;;14.38;5.50;;;18.40;99.90;;;;;;5052602;28;20397;-70
2022/07/22 00:44:06;;;;;;;14.48;5.32;;;18.40;99.90;;;;;;5052463;28;20459;-71
2022/07/22 00:46:33;;;;;;;;;;;18.40;99.90;;;;;;5051424;28;20223;-71
2022/07/22 00:48:59;;;;;;;13.02;5.45;;;18.40;99.90;;;;;;5051357;28;19999;-70
2022/07/22 00:51:27;;;;;;;10.35;5.05;;;18.40;99.90;;;;;;5050871;28;20043;-71
2022/07/22 00:53:54;;;;;;;12.02;5.57;;;18.40;99.90;;;;;;5052352;28;20032;-70
2022/07/22 00:56:21;;;;;;;17.88;5.50;;;18.30;99.90;;;;;;5050813;28;20387;-71
2022/07/22 00:58:48;;;;;;;13.90;5.40;;;18.30;99.90;;;;;;5050728;28;20033;-70
2022/07/22 01:01:15;;;;;;;20.50;6.03;;;18.30;99.90;;;;;;5051953;28;20465;-71
2022/07/22 01:03:42;;;;;;;11.95;5.60;;;18.40;99.90;;;;;;5050794;28;20469;-71
2022/07/22 01:06:09;;;;;;;10.05;5.63;;;18.30;99.90;;;;;;5050538;28;20029;-71
2022/07/22 01:08:35;;;;;;;12.63;5.05;;;18.30;99.90;;;;;;5050546;28;20383;-70
2022/07/22 01:11:13;;;;;;;11.50;4.78;;;18.30;99.90;;;;;;5051978;28;20033;-70
2022/07/22 01:13:40;;;;;;;10.70;5.30;;;18.30;99.90;;;;;;5034126;28;20041;-71
2022/07/22 01:16:08;;;;;;;13.07;5.85;;;18.30;99.90;;;;;;5050662;28;20060;-71
2022/07/22 01:18:34;;;;;;;11.27;5.70;;;18.30;99.90;;;;;;5051780;28;20021;-71
2022/07/22 01:21:00;;;;;;;12.23;5.82;;;18.30;99.90;;;;;;5050366;28;20024;-71
2022/07/22 01:23:27;;;;;;;11.05;5.63;;;18.30;99.90;;;;;;5050559;28;20334;-71
2022/07/22 01:25:53;;;;;;;10.55;5.60;;;18.30;99.90;;;;;;5050339;28;20029;-71
2022/07/22 01:28:19;;;;;;;13.90;5.28;;;18.30;99.90;;;;;;5050218;28;20115;-70
2022/07/22 01:30:45;;;;;;;11.50;4.90;;;18.30;99.90;;;;;;5051436;28;20025;-70
2022/07/22 01:33:11;;;;;;;15.18;5.30;;;18.30;99.90;;;;;;5050400;28;20033;-70
2022/07/22 01:35:37;;;;;;;6.60;4.50;;;18.30;99.90;;;;;;5051436;28;20037;-70
2022/07/22 01:38:03;;;;;;;8.82;4.57;;;18.20;99.90;;;;;;5050184;28;20101;-70
2022/07/22 01:40:30;;;;;;;10.85;3.95;;;18.30;99.90;;;;;;5049790;28;20033;-70
2022/07/22 01:42:56;;;;;;;6.40;4.10;;;18.20;99.90;;;;;;5050113;28;20025;-71
2022/07/22 01:45:22;;;;;;;8.00;4.65;;;18.20;99.90;;;;;;5050255;28;20508;-71
2022/07/22 01:47:48;;;;;;;8.23;4.40;;;18.20;99.90;;;;;;5050076;28;20028;-71
2022/07/22 01:50:13;;;;;;;6.53;3.63;;;18.20;99.90;;;;;;5049691;28;20123;-71
2022/07/22 01:52:40;;;;;;;7.25;3.72;;;18.20;99.90;;;;;;5049971;28;20078;-71
2022/07/22 01:55:08;;;;;;;6.63;4.43;;;18.20;99.90;;;;;;5051193;28;20048;-71
2022/07/22 01:57:35;;;;;;;6.87;3.57;;;18.20;99.90;;;;;;5033240;28;20114;-70
2022/07/22 02:00:09;;;;;;;5.78;3.40;;;18.20;99.90;;;;;;5049199;28;20029;-70
2022/07/22 02:02:42;;;;;;;6.80;3.80;;;18.20;99.90;;;;;;5051112;28;20037;-71
2022/07/22 02:05:10;;;;;;;7.13;5.22;;;18.20;99.90;;;;;;5049833;28;20072;-71
2022/07/22 02:07:36;;;;;;;10.13;6.47;;;18.20;99.90;;;;;;5049702;28;20066;-70
2022/07/22 02:10:05;;;;;;;6.00;3.33;;;18.20;99.90;;;;;;5049544;28;20036;-71
2022/07/22 02:12:33;;;;;;;5.28;3.15;;;18.20;99.90;;;;;;5049536;28;20048;-71
2022/07/22 02:14:59;;;;;;;5.00;3.15;;;18.20;99.90;;;;;;5049815;28;20489;-70
2022/07/22 02:17:25;;;;;;;3.97;3.00;;;18.20;99.90;;;;;;5049530;28;20029;-69
2022/07/22 02:19:51;;;;;;;4.70;3.00;;;18.10;99.90;;;;;;5050765;28;20021;-69
2022/07/22 02:22:17;;;;;;;4.35;2.92;;;18.20;99.90;;;;;;5049765;28;20029;-69
2022/07/22 02:24:46;;;;;;;4.68;3.08;;;18.20;99.90;;;;;;5049549;28;20029;-69
2022/07/22 02:27:13;;;;;;;5.35;3.35;;;18.20;99.90;;;;;;5049204;28;20091;-69
2022/07/22 02:29:39;;;;;;;5.95;3.08;;;18.20;99.90;;;;;;5049315;28;20059;-72
2022/07/22 02:32:06;;;;;;;5.10;3.05;;;18.20;99.90;;;;;;5049496;28;20032;-71
2022/07/22 02:34:32;;;;;;;4.18;2.70;;;18.20;99.90;;;;;;5049640;28;20035;-71
2022/07/22 02:36:58;;;;;;;4.25;3.30;;;18.20;99.90;;;;;;5049204;28;20575;-71
2022/07/22 02:39:24;;;;;;;5.82;3.28;;;18.10;99.90;;;;;;5050541;28;20025;-71
2022/07/22 02:41:49;;;;;;;4.05;3.40;;;18.20;99.90;;;;;;5049293;28;20033;-71
2022/07/22 02:44:16;;;;;;;5.32;3.70;;;18.20;99.90;;;;;;5049412;28;20091;-70
2022/07/22 02:46:42;;;;;;;4.95;3.47;;;18.10;99.90;;;;;;5032923;28;20114;-70
2022/07/22 02:49:14;;;;;;;5.75;3.40;;;18.10;99.90;;;;;;5049264;28;20025;-71
2022/07/22 02:51:39;;;;;;;5.50;3.45;;;18.10;99.90;;;;;;5049276;28;20037;-71
2022/07/22 02:54:06;;;;;;;6.43;3.90;;;18.20;99.90;;;;;;5049294;28;20041;-71
2022/07/22 02:56:32;;;;;;;5.50;3.60;;;18.10;99.90;;;;;;5049005;28;20509;-70
2022/07/22 02:58:59;;;;;;;7.03;4.20;;;18.10;99.90;;;;;;5048878;28;20029;-71
2022/07/22 03:01:25;;;;;;;9.02;4.75;;;18.20;99.90;;;;;;5049146;28;20620;-71
2022/07/22 03:03:55;;;;;;;7.25;5.20;;;18.10;99.90;;;;;;5049256;28;20025;-70
2022/07/22 03:06:22;;;;;;;9.02;5.40;;;18.20;99.90;;;;;;5049018;28;20029;-70
2022/07/22 03:09:06;;;;;;;8.43;4.93;;;18.20;99.90;;;;;;5049120;28;20443;-71
2022/07/22 03:11:34;;;;;;;12.32;5.70;;;18.20;99.90;;;;;;5051054;28;20093;-71
2022/07/22 03:14:01;;;;;;;11.18;6.60;;;18.20;99.90;;;;;;5052833;28;20075;-71
2022/07/22 03:16:28;;;;;;;12.05;5.93;;;18.20;99.90;;;;;;5052732;28;20223;-71
2022/07/22 03:18:55;;;;;;;11.25;6.00;;;18.20;99.90;;;;;;5052786;28;20074;-71
2022/07/22 03:21:21;;;;;;;9.73;6.05;;;18.20;99.90;;;;;;5052634;28;20025;-70
2022/07/22 03:23:53;;;;;;;11.18;6.00;;;18.20;99.90;;;;;;5052683;28;20029;-70
2022/07/22 03:26:23;;;;;;;11.27;5.30;;;18.20;99.90;;;;;;5036044;28;20036;-70
2022/07/22 03:28:50;;;;;;;5.85;3.15;;;18.30;99.90;;;;;;5035802;28;20112;-71
2022/07/22 03:31:16;;;;;;;7.40;3.42;;;18.20;99.90;;;;;;5052593;28;20036;-71
2022/07/22 03:33:43;;;;;;;8.50;3.30;;;18.30;99.90;;;;;;5052660;28;20124;-71
2022/07/22 03:36:09;;;;;;;8.18;2.92;;;18.20;99.90;;;;;;5052325;28;20531;-71
2022/07/22 03:38:38;;;;;;;9.85;2.97;;;18.30;99.90;;;;;;5036156;28;20449;-71
2022/07/22 03:41:07;;;;;;;9.98;3.15;;;18.20;99.90;;;;;;5052307;28;20040;-71
2022/07/22 03:43:32;;;;;;;7.93;3.15;;;18.20;99.90;;;;;;5053608;28;20025;-71
2022/07/22 03:46:00;;;;;;;9.27;3.50;;;18.20;99.90;;;;;;5052198;28;20120;-70
2022/07/22 03:48:26;;;;;;;8.15;3.83;;;18.20;99.90;;;;;;5052207;28;20033;-70
2022/07/22 03:50:52;;;;;;;8.38;3.30;;;18.30;99.90;;;;;;5053440;28;20452;-70
2022/07/22 03:53:20;;;;;;;8.40;3.20;;;18.30;99.90;;;;;;5035699;28;20047;-70
2022/07/22 03:55:46;;;;;;;10.55;3.30;;;18.30;99.90;;;;;;5051951;28;20120;-71
2022/07/22 03:58:12;;;;;;;13.10;3.83;;;18.30;99.90;;;;;;5053415;28;20052;-71
2022/07/22 04:00:38;;;;;;;6.32;3.08;;;18.20;99.90;;;;;;5053299;28;20028;-71
2022/07/22 04:03:06;;;;;;;8.95;3.25;;;18.20;99.90;;;;;;5053236;28;20032;-71
2022/07/22 04:06:00;;;;;;;8.52;2.72;;;18.20;99.90;;;;;;5051912;28;20033;-71
2022/07/22 04:08:52;;;;;;;13.85;4.05;;;18.20;99.90;;;;;;5051614;28;20116;-71
2022/07/22 04:11:18;;;;;;;8.50;3.53;;;18.10;99.90;;;;;;5051835;28;20116;-71
2022/07/22 04:13:44;;;;;;;8.18;2.97;;;18.20;99.90;;;;;;5051778;28;20041;-70
2022/07/22 04:16:10;;;;;;;7.30;3.05;;;18.20;99.90;;;;;;5051674;28;20045;-71
2022/07/22 04:18:43;;;;;;;8.43;3.65;;;18.20;99.90;;;;;;5051553;28;20417;-71
2022/07/22 04:21:09;;;;;;;8.00;2.90;;;18.20;99.90;;;;;;5051758;28;20574;-71
2022/07/22 04:23:48;;;;;;;;;;;18.30;99.90;;;;;;5037328;28;20052;-71
2022/07/22 04:26:23;;;;;;;7.68;3.13;;;18.20;99.90;;;;;;5051703;28;20280;-71
2022/07/22 04:28:49;;;;;;;7.13;2.60;;;18.20;99.90;;;;;;5051462;28;20115;-71
2022/07/22 04:31:16;;;;;;;7.18;2.50;;;18.20;99.90;;;;;;5051460;28;20025;-71
2022/07/22 04:33:42;;;;;;;7.15;3.30;;;18.20;99.90;;;;;;5051517;28;20150;-70
2022/07/22 04:36:09;;;;;;;9.05;3.10;;;18.20;99.90;;;;;;5051276;28;20036;-71
2022/07/22 04:38:35;;;;;;;6.72;2.60;;;18.20;99.90;;;;;;5051094;28;20458;-71
2022/07/22 04:41:04;;;;;;;8.00;2.67;;;18.20;99.90;;;;;;5051406;28;20029;-71
2022/07/22 04:43:30;;;;;;;7.13;2.55;;;18.20;99.90;;;;;;5051223;28;20541;-72
2022/07/22 04:45:56;;;;;;;6.03;2.47;;;18.20;99.90;;;;;;5052405;28;20037;-71
2022/07/22 04:48:25;;;;;;;8.13;2.33;;;18.30;99.90;;;;;;5051117;28;20036;-70
2022/07/22 04:50:53;;;;;;;7.03;2.55;;;18.20;99.90;;;;;;5050990;28;20456;-71
2022/07/22 04:53:18;;;;;;;4.78;2.20;;;18.20;99.90;;;;;;5051026;28;20040;-71
2022/07/22 04:55:46;;;;;;;6.38;2.40;;;18.20;99.90;;;;;;5050963;28;20036;-71
2022/07/22 04:58:12;;;;;;;9.45;2.70;;;18.30;99.90;;;;;;5050854;28;20489;-71
2022/07/22 05:00:38;;;;;;;6.32;2.30;;;18.30;99.90;;;;;;5051991;28;20496;-70
2022/07/22 05:03:04;;;;;;;7.63;2.40;;;18.30;99.90;;;;;;5050904;28;20028;-71
2022/07/22 05:05:30;;;;;;;8.50;2.55;;;18.30;99.90;;;;;;5050834;28;20029;-71
2022/07/22 05:07:57;;;;;;;10.68;2.63;;;18.30;99.90;;;;;;5050659;28;20036;-71
2022/07/22 05:10:25;;;;;;;10.18;2.97;;;18.20;99.90;;;;;;5050514;28;20116;-70
2022/07/22 05:12:50;;;;;;;8.93;3.40;;;18.30;99.90;;;;;;5050801;28;20458;-71
2022/07/22 05:15:16;;;;;;;7.93;2.70;;;18.30;99.90;;;;;;5050620;28;20372;-70
2022/07/22 05:17:43;;;;;;;9.63;2.35;;;18.30;99.90;;;;;;5050440;28;20033;-71
2022/07/22 05:20:17;;;;;;;8.25;2.70;;;18.30;99.90;;;;;;5050189;28;20055;-71
2022/07/22 05:22:43;;;;;;;6.20;2.60;;;18.30;99.90;;;;;;5050460;28;20051;-71
2022/07/22 05:25:14;;;;;;;7.70;2.50;;;18.30;99.90;;;;;;5050468;28;20059;-71
2022/07/22 05:27:50;;;;;;;7.03;2.22;;;18.30;99.90;;;;;;5050560;28;20378;-71
2022/07/22 05:30:19;;;;;;;9.07;2.45;;;18.30;99.90;;;;;;5050160;28;20090;-71
2022/07/22 05:32:45;;;;;;;8.25;2.40;;;18.30;99.90;;;;;;5050449;28;20037;-71
2022/07/22 05:35:13;;;;;;;9.07;2.58;;;18.30;99.90;;;;;;5049788;28;20033;-71
2022/07/22 05:37:39;;;;;;;4.60;2.63;;;18.40;99.90;;;;;;5050091;28;20129;-70
2022/07/22 05:40:06;;;;;;;8.13;3.35;;;18.40;99.90;;;;;;5049958;28;20117;-71
2022/07/22 05:42:32;;;;;;;10.75;2.80;;;18.30;99.90;;;;;;5050301;28;20036;-71
2022/07/22 05:44:58;;;;;;;9.23;2.70;;;18.40;99.90;;;;;;5033565;28;20025;-70
2022/07/22 05:47:24;;;;;;;8.10;3.00;;;18.40;99.90;;;;;;5049915;28;20072;-71
2022/07/22 05:49:50;;;;;;;6.70;2.40;;;18.40;99.90;;;;;;5049936;28;20025;-71
2022/07/22 05:52:16;;;;;;;8.10;2.58;;;18.50;99.90;;;;;;5050190;28;20206;-71
2022/07/22 05:54:42;;;;;;;7.53;2.30;;;18.50;99.90;;;;;;5050268;28;20276;-71
2022/07/22 05:57:09;;;;;;;7.15;2.30;;;18.50;99.90;;;;;;5050031;28;20033;-71
2022/07/22 05:59:36;;;;;;;5.43;2.20;;;18.50;99.90;;;;;;5049777;28;20110;-71
2022/07/22 06:02:04;;;;;;;7.45;1.88;;;18.50;99.90;;;;;;5049789;28;20043;-70
2022/07/22 06:04:40;;;;;;;7.80;2.17;;;18.50;99.90;;;;;;5049933;28;20029;-70
2022/07/22 06:07:07;;;;;;;6.38;2.17;;;18.50;99.90;;;;;;5049712;28;20029;-71
2022/07/22 06:09:34;;;;;;;7.68;1.92;;;18.50;99.90;;;;;;5049729;28;20029;-71
2022/07/22 06:12:00;;;;;;;5.65;1.88;;;18.60;99.90;;;;;;5050884;28;20413;-71
2022/07/22 06:14:27;;;;;;;7.13;2.03;;;18.60;99.90;;;;;;5049630;28;20036;-71
2022/07/22 06:16:53;;;;;;;8.20;2.13;;;18.50;99.90;;;;;;5050919;28;20021;-70
2022/07/22 06:19:19;;;;;;;7.43;2.00;;;18.60;99.90;;;;;;5049461;28;20048;-71
2022/07/22 06:21:45;;;;;;;9.38;3.13;;;18.60;99.90;;;;;;5050854;28;20108;-71
2022/07/22 06:24:13;;;;;;;8.03;2.50;;;18.60;99.90;;;;;;5049626;28;20025;-71
2022/07/22 06:26:39;;;;;;;8.38;2.22;;;18.60;99.90;;;;;;5049539;28;20374;-71
2022/07/22 06:29:05;;;;;;;9.27;2.20;;;18.60;99.90;;;;;;5049184;28;20052;-71
2022/07/22 06:31:31;;;;;;;7.53;2.38;;;18.60;99.90;;;;;;5032870;28;20110;-71
2022/07/22 06:33:57;;;;;;;9.23;2.50;;;18.60;99.90;;;;;;5049613;28;20029;-71
2022/07/22 06:36:33;;;;;;;10.20;2.10;;;18.60;99.90;;;;;;5049302;28;20039;-71
2022/07/22 06:38:59;;;;;;;;;;;18.60;99.90;;;;;;5051097;28;20485;-71
2022/07/22 06:41:45;;;;;;;8.05;2.60;;;18.60;99.90;;;;;;5050337;28;19909;-71
2022/07/22 06:44:34;;;;;;;7.15;2.00;;;18.70;99.90;;;;;;5045412;28;20102;-71
2022/07/22 06:47:35;;;;;;;7.25;2.10;;;18.70;99.90;;;;;;5031398;28;20120;-71
2022/07/22 06:50:03;;;;;;;6.82;2.10;;;18.70;99.90;;;;;;5053157;28;20477;-71
2022/07/22 06:52:29;;;;;;;8.45;2.55;;;18.70;99.90;;;;;;5054926;28;20117;-70
2022/07/22 06:54:56;;;;;;;7.53;2.42;;;18.70;99.90;;;;;;5053433;28;20108;-71
2022/07/22 06:57:27;;;;;;;8.45;3.05;;;18.70;99.90;;;;;;5037296;28;20031;-71
2022/07/22 06:59:53;;;;;;;7.72;2.83;;;18.70;99.90;;;;;;5054364;28;20032;-71
2022/07/22 07:02:19;;;;;;;10.15;3.33;;;18.80;99.90;;;;;;5053295;28;20025;-71
2022/07/22 07:04:46;;;;;;;7.25;2.45;;;18.80;99.90;;;;;;5053222;28;20048;-71
2022/07/22 07:07:12;;;;;;;6.35;2.00;;;18.70;99.90;;;;;;5052952;28;20060;-71
2022/07/22 07:09:48;;;;;;;5.93;1.92;;;18.70;99.90;;;;;;5052817;28;20029;-71
2022/07/22 07:12:54;;;;;;;5.15;1.80;;;18.80;99.90;;;;;;5046227;28;20076;-71
2022/07/22 07:15:24;;;;;;;6.35;2.40;;;18.70;99.90;;;;;;5052872;28;20033;-71
2022/07/22 07:17:56;;;;;;;13.65;3.00;;;18.70;99.90;;;;;;5052746;28;20031;-71
2022/07/22 07:20:22;;;;;;;7.93;2.35;;;18.70;99.90;;;;;;5052657;28;20029;-71
2022/07/22 07:22:48;;;;;;;5.38;1.92;;;18.70;99.90;;;;;;5052892;28;20686;-71
2022/07/22 07:25:15;;;;;;;6.40;1.88;;;18.70;99.90;;;;;;5052769;28;20106;-71
2022/07/22 07:27:41;;;;;;;9.43;2.33;;;18.70;99.90;;;;;;5052540;28;20025;-71
2022/07/22 07:30:11;;;;;;;8.85;2.55;;;18.70;99.90;;;;;;5052375;28;20119;-71
2022/07/22 07:32:37;;;;;;;6.43;2.10;;;18.70;99.90;;;;;;5052732;28;20119;-71
2022/07/22 07:35:05;;;;;;;7.53;2.17;;;18.70;99.90;;;;;;5052593;28;20021;-70
2022/07/22 07:37:32;;;;;;;6.65;2.75;;;18.70;99.90;;;;;;5052462;28;20166;-71
2022/07/22 07:39:59;;;;;;;17.25;6.88;;;18.70;99.90;;;;;;5052257;28;20033;-71
2022/07/22 07:42:26;;;;;;;10.40;5.00;;;18.70;99.90;;;;;;5052514;28;20032;-70
2022/07/22 07:44:52;;;;;;;9.40;2.85;;;18.70;99.90;;;;;;5052471;28;20028;-71
2022/07/22 07:47:20;;;;;;;8.25;2.35;;;18.70;99.90;;;;;;5053597;28;20028;-71
2022/07/22 07:49:48;;;;;;;7.22;2.28;;;18.70;99.90;;;;;;5051926;28;20541;-70
2022/07/22 07:52:16;;;;;;;4.68;2.10;;;18.70;99.90;;;;;;5052264;28;20119;-70
2022/07/22 07:54:42;;;;;;;5.07;2.03;;;18.70;99.90;;;;;;5052218;28;20036;-70
2022/07/22 07:57:13;;;;;;;8.43;2.17;;;18.80;99.90;;;;;;5052963;28;20043;-70
2022/07/22 07:59:39;;;;;;;4.72;2.20;;;18.80;99.90;;;;;;5052094;28;20118;-70
2022/07/22 08:02:06;;;;;;;8.35;2.50;;;18.80;99.90;;;;;;5052215;28;20486;-70
2022/07/22 08:04:35;;;;;;;11.98;2.55;;;18.80;99.90;;;;;;5051962;28;20029;-70
2022/07/22 08:07:04;;;;;;;6.57;2.10;;;18.80;99.90;;;;;;5051798;28;20036;-70
2022/07/22 08:09:30;;;;;;;4.65;2.30;;;18.80;99.90;;;;;;5052005;28;20114;-70
2022/07/22 08:11:57;;;;;;;7.40;2.60;;;18.90;99.90;;;;;;5051693;28;20029;-70
2022/07/22 08:14:39;;;;;;;8.02;2.75;;;18.80;99.90;;;;;;5051882;28;20036;-70
2022/07/22 08:17:24;;;;;;;7.68;2.63;;;18.90;99.90;;;;;;5051504;28;20489;-71
2022/07/22 08:19:50;;;;;;;5.43;2.20;;;18.90;99.90;;;;;;5051642;28;20029;-70
2022/07/22 08:22:16;;;;;;;4.03;2.42;;;18.90;99.90;;;;;;5051977;28;20025;-70
2022/07/22 08:24:44;;;;;;;5.20;2.22;;;19.00;99.90;;;;;;5035413;28;20061;-70
2022/07/22 08:27:14;;;;;;;4.75;2.15;;;19.00;99.90;;;;;;5051462;28;20116;-71
2022/07/22 08:29:41;;;;;;;4.32;2.00;;;19.00;99.90;;;;;;5051293;28;20029;-71
2022/07/22 08:32:07;;;;;;;7.03;2.42;;;19.00;99.90;;;;;;5051412;28;20045;-71
2022/07/22 08:34:34;;;;;;;5.57;2.42;;;19.00;99.90;;;;;;5051574;28;20029;-70
2022/07/22 08:37:00;;;;;;;5.95;2.40;;;19.00;99.90;;;;;;5052646;28;20037;-71
2022/07/22 08:39:27;;;;;;;9.70;2.42;;;19.00;99.90;;;;;;5052567;28;20034;-70
2022/07/22 08:41:55;;;;;;;6.97;2.42;;;19.10;99.90;;;;;;5051363;28;20082;-70
2022/07/22 08:44:22;;;;;;;4.90;2.30;;;19.00;99.90;;;;;;5034734;28;20028;-70
2022/07/22 08:46:48;;;;;;;7.47;2.40;;;19.10;99.90;;;;;;5051378;28;20032;-70
2022/07/22 08:49:20;;;;;;;5.95;2.67;;;19.10;99.90;;;;;;5051172;28;20029;-70
2022/07/22 08:52:02;;;;;;;8.52;2.78;;;19.10;99.90;;;;;;5051195;28;20029;-70
2022/07/22 08:54:35;;;;;;;5.07;2.20;;;19.10;99.90;;;;;;5051334;28;20400;-71
2022/07/22 08:57:02;;;;;;;7.22;2.67;;;19.10;99.90;;;;;;5050702;28;20033;-70
2022/07/22 08:59:28;;;;;;;5.95;2.65;;;19.10;99.90;;;;;;5050738;28;20032;-71
2022/07/22 09:02:11;;;;;;;7.32;2.30;;;19.10;99.90;;;;;;5050994;28;20025;-70
2022/07/22 09:04:55;;;;;;;8.38;2.65;;;19.10;99.90;;;;;;5051061;28;20115;-70
2022/07/22 09:07:34;;;;;;;12.38;2.65;;;19.20;99.90;;;;;;5050762;28;20508;-70
2022/07/22 09:10:17;;;;;;;7.15;2.97;;;19.20;99.90;;;;;;5049912;28;20081;-70
2022/07/22 09:13:05;;;;;;;6.78;2.88;;;19.20;99.90;;;;;;5052044;28;20088;-70
2022/07/22 09:15:50;;;;;;;8.17;3.23;;;19.20;99.90;;;;;;5051948;28;20061;-70
2022/07/22 09:18:52;;;;;;;6.15;3.10;;;19.30;99.90;;;;;;5051742;28;20723;-70
2022/07/22 09:21:32;;;;;;;9.77;4.07;;;19.30;99.90;;;;;;5052068;28;20033;-70
2022/07/22 09:24:31;;;;;;;9.00;4.32;;;19.30;99.90;;;;;;5038390;28;20068;-71
2022/07/22 09:27:27;;;;;;;11.35;4.60;;;19.40;99.90;;;;;;5046310;28;20056;-71
2022/07/22 09:30:17;;;;;;;9.68;4.10;;;19.30;99.90;;;;;;5051512;28;20087;-70
2022/07/22 09:32:56;;;;;;;7.47;3.85;;;19.40;99.90;;;;;;5050604;28;20071;-70
2022/07/22 09:35:43;;;;;;;8.93;3.83;;;19.30;99.90;;;;;;5051278;28;20087;-70
2022/07/22 09:38:11;;;;;;;9.68;4.28;;;19.30;99.90;;;;;;5050298;28;20386;-70
2022/07/22 09:40:40;;;;;;;7.05;3.85;;;19.30;99.90;;;;;;5050124;28;20024;-69
2022/07/22 09:43:12;;;;;;;9.52;4.20;;;19.30;99.90;;;;;;5051681;28;20381;-71
2022/07/22 09:45:51;;;;;;;8.20;4.22;;;19.40;99.90;;;;;;5050049;28;20033;-71
2022/07/22 09:48:19;;;;;;;8.73;4.32;;;19.40;99.90;;;;;;5050169;28;20392;-71
2022/07/22 09:51:14;;;;;;;10.10;4.88;;;19.50;99.90;;;;;;5042044;28;20116;-71
2022/07/22 09:53:59;;;;;;;9.50;4.97;;;19.60;99.90;;;;;;5052084;28;20044;-71
2022/07/22 09:56:30;;;;;;;6.97;4.00;;;19.70;99.90;;;;;;5051220;28;20228;-71
2022/07/22 09:58:56;;;;;;;11.10;4.65;;;19.80;99.90;;;;;;5033181;28;20511;-71
2022/07/22 10:01:33;;;;;;;11.63;5.80;;;19.80;99.90;;;;;;5049797;28;20029;-71
2022/07/22 10:04:00;;;;;;;10.32;5.55;;;20.00;99.90;;;;;;5050025;28;20036;-71
2022/07/22 10:06:27;;;;;;;13.75;7.50;;;20.10;99.90;;;;;;5049812;28;20094;-71
2022/07/22 10:08:55;;;;;;;11.93;6.22;;;20.10;99.90;;;;;;5049716;28;20029;-71
2022/07/22 10:11:21;;;;;;;10.27;5.95;;;20.10;99.90;;;;;;5049853;28;20079;-71
2022/07/22 10:13:48;;;;;;;12.77;6.50;;;20.20;99.90;;;;;;5049859;28;20044;-71
2022/07/22 10:16:14;;;;;;;11.27;6.30;;;20.20;99.90;;;;;;5049327;28;20071;-71
2022/07/22 10:18:46;;;;;;;11.63;6.30;;;20.30;99.90;;;;;;5049482;28;20029;-71
2022/07/22 10:21:14;;;;;;;13.80;7.15;;;20.30;99.90;;;;;;5049538;28;20032;-71
2022/07/22 10:24:09;;;;;;;13.52;6.75;;;20.30;99.90;;;;;;5049668;28;20128;-71
2022/07/22 10:26:53;;;;;;;15.75;7.60;;;20.30;99.90;;;;;;5049514;28;20039;-71
2022/07/22 10:29:38;;;;;;;12.65;7.47;;;20.30;99.90;;;;;;5050731;28;20060;-71
2022/07/22 10:32:16;;;;;;;12.05;7.53;;;20.40;99.90;;;;;;5050875;28;20029;-70
2022/07/22 10:34:55;;;;;;;12.52;7.05;;;20.30;99.90;;;;;;5051051;28;20029;-71
2022/07/22 10:37:34;;;;;;;12.90;7.30;;;20.20;99.90;;;;;;5050689;28;20029;-70
2022/07/22 10:40:25;;;;;;;12.15;7.50;;;20.20;99.90;;;;;;5050653;28;20449;-70
2022/07/22 10:43:00;;;;;;;12.98;8.10;;;20.20;99.90;;;;;;5050983;28;20482;-70
2022/07/22 10:45:28;;;;;;;13.60;8.05;;;20.20;99.90;;;;;;5050794;28;20078;-71
2022/07/22 10:47:58;;;;;;;12.82;7.50;;;20.10;99.90;;;;;;5049580;28;20033;-70
2022/07/22 10:50:37;;;;;;;10.60;7.13;;;20.20;99.90;;;;;;5049121;28;20494;-70
2022/07/22 10:53:08;;;;;;;11.52;7.28;;;20.10;99.90;;;;;;5049440;28;20036;-70
2022/07/22 10:55:36;;;;;;;11.15;6.82;;;20.20;99.90;;;;;;5050518;28;20486;-72
2022/07/22 10:58:32;;;;;;;12.32;8.15;;;20.20;99.90;;;;;;5050822;28;20028;-70
2022/07/22 11:01:04;;;;;;;12.32;7.38;;;20.20;99.90;;;;;;5050502;28;20636;-70
2022/07/22 11:03:31;;;;;;;14.63;7.70;;;20.20;99.90;;;;;;5050729;28;20025;-70
2022/07/22 11:06:15;;;;;;;12.20;7.72;;;20.20;99.90;;;;;;5050391;28;20540;-71
2022/07/22 11:08:42;;;;;;;12.07;7.43;;;20.30;99.90;;;;;;5050337;28;20047;-70
2022/07/22 11:11:08;;;;;;;10.25;6.32;;;20.40;99.90;;;;;;5050806;28;20033;-70
2022/07/22 11:13:39;;;;;;;11.55;6.78;;;20.50;99.90;;;;;;5050429;28;20041;-70
2022/07/22 11:16:19;;;;;;;11.35;7.38;;;20.50;99.90;;;;;;5050173;28;20113;-70
2022/07/22 11:18:49;;;;;;;10.25;6.90;;;20.50;99.90;;;;;;5050153;28;20021;-70
2022/07/22 11:21:16;;;;;;;11.07;6.90;;;20.50;99.90;;;;;;5050456;28;20025;-70
2022/07/22 11:23:43;;;;;;;12.35;6.65;;;20.50;99.90;;;;;;5050394;28;20025;-70
2022/07/22 11:26:13;;;;;;;9.90;6.20;;;20.50;99.90;;;;;;5049130;28;20366;-70
2022/07/22 11:28:44;;;;;;;12.05;6.57;;;20.50;99.90;;;;;;5050200;28;20044;-70
2022/07/22 11:31:14;;;;;;;10.50;6.43;;;20.60;99.90;;;;;;5050140;28;20497;-70
2022/07/22 11:33:39;;;;;;;8.63;5.90;;;20.60;99.90;;;;;;5054039;28;20032;-70
2022/07/22 11:36:09;;;;;;;12.43;6.20;;;20.60;99.90;;;;;;5053927;28;20033;-70
2022/07/22 11:38:46;;;;;;;10.35;6.00;;;20.70;99.90;;;;;;5053662;28;20086;-71
2022/07/22 11:41:12;;;;;;;7.35;5.25;;;20.70;99.90;;;;;;5053750;28;20029;-70
2022/07/22 11:43:44;;;;;;;7.93;5.57;;;20.70;99.80;;;;;;5053739;28;20425;-70
2022/07/22 11:46:10;;;;;;;12.30;5.60;;;20.80;99.90;;;;;;5053639;28;20080;-70
2022/07/22 11:48:37;;;;;;;9.27;5.25;;;20.80;99.90;;;;;;5053466;28;20033;-70
2022/07/22 11:51:05;;;;;;;8.55;5.57;;;20.80;99.90;;;;;;5052313;28;20029;-70
2022/07/22 11:53:31;;;;;;;7.85;4.68;;;20.90;99.50;;;;;;5053653;28;20029;-70
2022/07/22 11:56:01;;;;;;;8.32;4.97;;;20.90;99.00;;;;;;5053374;28;20032;-70
2022/07/22 11:58:42;;;;;;;10.10;5.72;;;21.00;98.70;;;;;;5053409;28;20059;-71
2022/07/22 12:01:16;;;;;;;8.98;5.10;;;21.10;98.60;;;;;;5053387;28;20025;-71
2022/07/22 12:03:46;;;;;;;12.73;8.15;;;21.10;97.50;;;;;;5053293;28;20029;-71
2022/07/22 12:06:14;;;;;;;11.43;6.45;;;21.10;97.40;;;;;;5053277;28;20036;-70
2022/07/22 12:08:43;;;;;;;8.38;5.38;;;21.10;97.70;;;;;;5052984;28;20510;-71
2022/07/22 12:11:10;;;;;;;;;;;21.10;97.70;;;;;;5052312;28;20047;-70
2022/07/22 12:13:40;;;;;;;6.43;4.43;;;21.10;97.20;;;;;;5053238;28;19913;-71
2022/07/22 12:16:21;;;;;;;6.93;4.47;;;21.10;97.10;;;;;;5053099;28;20401;-70
2022/07/22 12:18:52;;;;;;;7.32;4.32;;;21.10;97.30;;;;;;5052881;28;20021;-70
2022/07/22 12:21:18;;;;;;;7.30;4.70;;;21.00;97.20;;;;;;5052972;28;20018;-71
2022/07/22 12:23:52;;;;;;;7.93;4.90;;;21.10;97.40;;;;;;5052954;28;20029;-70
2022/07/22 12:26:18;;;;;;;9.43;4.60;;;21.10;97.00;;;;;;5052866;28;20035;-70
2022/07/22 12:28:44;;;;;;;7.72;5.30;;;21.20;97.10;;;;;;5052759;28;20021;-70
2022/07/22 12:31:10;;;;;;;9.00;4.75;;;21.20;97.20;;;;;;5052906;28;20056;-70
2022/07/22 12:33:36;;;;;;;8.88;4.90;;;21.30;97.70;;;;;;5052761;28;20040;-70
2022/07/22 12:36:07;;;;;;;8.23;4.70;;;21.30;97.70;;;;;;5052663;28;20120;-70
2022/07/22 12:38:33;;;;;;;9.48;5.38;;;21.40;97.80;;;;;;5052687;28;20482;-70
2022/07/22 12:41:25;;;;;;;7.47;4.70;;;21.40;97.70;;;;;;5052836;28;20554;-70
2022/07/22 12:43:52;;;;;;;9.15;5.10;;;21.50;97.20;;;;;;5052396;28;20017;-70
2022/07/22 12:46:18;;;;;;;9.50;5.35;;;21.50;97.20;;;;;;5052520;28;20107;-71
2022/07/22 12:48:51;;;;;;;8.90;5.32;;;21.50;96.60;;;;;;5052384;28;20187;-71
2022/07/22 12:51:17;;;;;;;9.52;4.90;;;21.50;96.90;;;;;;5052539;28;20078;-70
2022/07/22 12:53:43;;;;;;;8.65;5.50;;;21.50;97.00;;;;;;5052448;28;20029;-70
2022/07/22 12:56:10;;;;;;;6.53;4.80;;;21.50;97.00;;;;;;5052341;28;20383;-70
2022/07/22 12:58:39;;;;;;;7.70;5.03;;;21.50;96.60;;;;;;5052180;28;20029;-71